Highland Falls, New York
Current Conditions -  °F | °C
As of 10:45 PM on Wednesday 22 Oct 2014 (Local Time) from KSWF Reporting Station
Light Rain Light Rain  
Wind Chill: 50°   Ceiling: 1200
Heat Index: 50°   Visibility: 4mi
Dew Point: 48°   Wind: 21mph
Humidity: 94%   Direction: 10°N
Pressure: 29.83"   Gusts: 32mph
Location:  41.37°N, 73.97°W
Report Text: KSWF 230245Z 01018G28KT 4SM -RA BR OVC012 10/09 A2983
Loading
Personal Weather Stations






























Interactive Weather Map
Tropical Storm Tracking
New forecast layout! Learn more

10-Day Weather Forecast

Advertisements
Track Severe Weather on mobile